Terminal Aerodrome Forecast
Issued by NWS

Home | Current Version | Previous Version | Text Only | Print | Product List | Glossary Off
Versions: 1 2 3 4 5 6 7 8 9 10 11 12 13 14 15 16

000
FTUS45 KGGW 221134
TAFOLF
TAF
KOLF 221134Z 2212/2312 26006KT 6SM BR BKN015
     FM221600 26007KT 4SM BR BKN010
     FM222100 27008KT P6SM SCT010
     FM230600 VRB03KT P6SM BKN015=

USA.gov is the U.S. government's official web portal to all federal, state and local government web resources and services.